sensor_id;sensor_type;location;lat;lon;timestamp;P1;durP1;ratioP1;P2;durP2;ratioP2
22270;SDS011;11304;53.520;10.104;2023-09-19T00:00:19;7.07;;;2.30;;
22270;SDS011;11304;53.520;10.104;2023-09-19T00:02:51;5.85;;;2.17;;
22270;SDS011;11304;53.520;10.104;2023-09-19T00:05:18;4.95;;;2.10;;
22270;SDS011;11304;53.520;10.104;2023-09-19T00:07:49;6.40;;;1.98;;
22270;SDS011;11304;53.520;10.104;2023-09-19T00:10:16;4.28;;;2.10;;
22270;SDS011;11304;53.520;10.104;2023-09-19T00:12:45;4.40;;;2.35;;
22270;SDS011;11304;53.520;10.104;2023-09-19T00:15:11;6.43;;;2.60;;
22270;SDS011;11304;53.520;10.104;2023-09-19T00:17:36;4.65;;;2.17;;
22270;SDS011;11304;53.520;10.104;2023-09-19T00:20:03;8.63;;;2.30;;
22270;SDS011;11304;53.520;10.104;2023-09-19T00:22:40;4.47;;;2.63;;
22270;SDS011;11304;53.520;10.104;2023-09-19T00:25:10;8.60;;;2.17;;
22270;SDS011;11304;53.520;10.104;2023-09-19T00:27:39;3.95;;;1.85;;
22270;SDS011;11304;53.520;10.104;2023-09-19T00:30:08;4.25;;;2.17;;
22270;SDS011;11304;53.520;10.104;2023-09-19T00:32:44;5.28;;;2.05;;
22270;SDS011;11304;53.520;10.104;2023-09-19T00:35:12;5.78;;;2.60;;
22270;SDS011;11304;53.520;10.104;2023-09-19T00:37:41;4.18;;;2.20;;
22270;SDS011;11304;53.520;10.104;2023-09-19T00:40:08;6.13;;;2.25;;
22270;SDS011;11304;53.520;10.104;2023-09-19T00:42:40;6.70;;;2.30;;
22270;SDS011;11304;53.520;10.104;2023-09-19T00:45:11;7.65;;;2.50;;
22270;SDS011;11304;53.520;10.104;2023-09-19T00:47:38;5.43;;;2.03;;
22270;SDS011;11304;53.520;10.104;2023-09-19T00:50:05;8.40;;;2.23;;
22270;SDS011;11304;53.520;10.104;2023-09-19T00:52:35;4.20;;;2.25;;
22270;SDS011;11304;53.520;10.104;2023-09-19T00:55:03;10.63;;;2.60;;
22270;SDS011;11304;53.520;10.104;2023-09-19T00:57:30;7.82;;;2.58;;
22270;SDS011;11304;53.520;10.104;2023-09-19T00:59:57;6.75;;;2.70;;
22270;SDS011;11304;53.520;10.104;2023-09-19T01:02:25;5.97;;;2.70;;
22270;SDS011;11304;53.520;10.104;2023-09-19T01:04:54;5.50;;;2.60;;
22270;SDS011;11304;53.520;10.104;2023-09-19T01:07:20;4.88;;;2.53;;
22270;SDS011;11304;53.520;10.104;2023-09-19T01:09:47;7.28;;;2.55;;
22270;SDS011;11304;53.520;10.104;2023-09-19T01:12:15;4.95;;;2.50;;
22270;SDS011;11304;53.520;10.104;2023-09-19T01:14:57;6.72;;;2.15;;
22270;SDS011;11304;53.520;10.104;2023-09-19T01:17:32;6.43;;;2.40;;
22270;SDS011;11304;53.520;10.104;2023-09-19T01:20:50;7.18;;;2.90;;
22270;SDS011;11304;53.520;10.104;2023-09-19T01:29:33;5.85;;;3.13;;
22270;SDS011;11304;53.520;10.104;2023-09-19T01:32:13;6.25;;;2.85;;
22270;SDS011;11304;53.520;10.104;2023-09-19T01:34:55;5.88;;;2.80;;
22270;SDS011;11304;53.520;10.104;2023-09-19T01:37:28;8.65;;;3.20;;
22270;SDS011;11304;53.520;10.104;2023-09-19T01:39:55;7.30;;;3.30;;
22270;SDS011;11304;53.520;10.104;2023-09-19T01:51:14;8.27;;;2.90;;
22270;SDS011;11304;53.520;10.104;2023-09-19T01:54:03;8.65;;;2.92;;
22270;SDS011;11304;53.520;10.104;2023-09-19T01:59:16;7.60;;;2.88;;
22270;SDS011;11304;53.520;10.104;2023-09-19T02:01:54;5.70;;;2.60;;
22270;SDS011;11304;53.520;10.104;2023-09-19T02:04:21;9.52;;;3.03;;
22270;SDS011;11304;53.520;10.104;2023-09-19T02:06:47;7.47;;;2.95;;
22270;SDS011;11304;53.520;10.104;2023-09-19T02:09:13;7.93;;;3.10;;
22270;SDS011;11304;53.520;10.104;2023-09-19T02:11:39;9.50;;;3.35;;
22270;SDS011;11304;53.520;10.104;2023-09-19T02:14:06;6.80;;;2.97;;
22270;SDS011;11304;53.520;10.104;2023-09-19T02:16:33;6.43;;;3.13;;
22270;SDS011;11304;53.520;10.104;2023-09-19T02:18:59;9.15;;;2.65;;
22270;SDS011;11304;53.520;10.104;2023-09-19T02:21:25;5.07;;;2.65;;
22270;SDS011;11304;53.520;10.104;2023-09-19T02:26:20;8.90;;;3.22;;
22270;SDS011;11304;53.520;10.104;2023-09-19T02:28:46;6.25;;;3.05;;
22270;SDS011;11304;53.520;10.104;2023-09-19T02:31:12;5.80;;;2.70;;
22270;SDS011;11304;53.520;10.104;2023-09-19T02:33:38;6.55;;;2.88;;
22270;SDS011;11304;53.520;10.104;2023-09-19T02:36:04;6.30;;;3.35;;
22270;SDS011;11304;53.520;10.104;2023-09-19T02:38:30;7.60;;;3.50;;
22270;SDS011;11304;53.520;10.104;2023-09-19T02:40:56;6.80;;;3.60;;
22270;SDS011;11304;53.520;10.104;2023-09-19T02:43:22;7.22;;;3.17;;
22270;SDS011;11304;53.520;10.104;2023-09-19T02:45:48;7.38;;;2.88;;
22270;SDS011;11304;53.520;10.104;2023-09-19T02:48:15;8.18;;;2.80;;
22270;SDS011;11304;53.520;10.104;2023-09-19T02:50:41;10.25;;;3.45;;
22270;SDS011;11304;53.520;10.104;2023-09-19T02:53:09;9.68;;;3.15;;
22270;SDS011;11304;53.520;10.104;2023-09-19T02:55:37;12.55;;;3.60;;
22270;SDS011;11304;53.520;10.104;2023-09-19T02:58:05;7.57;;;2.88;;
22270;SDS011;11304;53.520;10.104;2023-09-19T03:00:36;7.35;;;2.70;;
22270;SDS011;11304;53.520;10.104;2023-09-19T03:03:02;10.02;;;2.72;;
22270;SDS011;11304;53.520;10.104;2023-09-19T03:05:30;10.25;;;2.85;;
22270;SDS011;11304;53.520;10.104;2023-09-19T03:07:56;6.30;;;2.70;;
22270;SDS011;11304;53.520;10.104;2023-09-19T03:10:22;9.55;;;3.15;;
22270;SDS011;11304;53.520;10.104;2023-09-19T03:12:49;7.97;;;2.80;;
22270;SDS011;11304;53.520;10.104;2023-09-19T03:15:15;5.38;;;2.88;;
22270;SDS011;11304;53.520;10.104;2023-09-19T03:17:43;6.72;;;2.60;;
22270;SDS011;11304;53.520;10.104;2023-09-19T03:20:10;7.35;;;2.65;;
22270;SDS011;11304;53.520;10.104;2023-09-19T03:22:38;10.20;;;2.80;;
22270;SDS011;11304;53.520;10.104;2023-09-19T03:25:05;10.13;;;2.50;;
22270;SDS011;11304;53.520;10.104;2023-09-19T03:27:38;10.02;;;2.78;;
22270;SDS011;11304;53.520;10.104;2023-09-19T03:30:04;5.05;;;2.45;;
22270;SDS011;11304;53.520;10.104;2023-09-19T03:32:34;11.57;;;2.80;;
22270;SDS011;11304;53.520;10.104;2023-09-19T03:35:01;7.70;;;2.83;;
22270;SDS011;11304;53.520;10.104;2023-09-19T03:37:27;6.97;;;2.50;;
22270;SDS011;11304;53.520;10.104;2023-09-19T03:39:53;6.57;;;2.67;;
22270;SDS011;11304;53.520;10.104;2023-09-19T03:42:19;7.68;;;2.28;;
22270;SDS011;11304;53.520;10.104;2023-09-19T03:44:50;5.78;;;1.80;;
22270;SDS011;11304;53.520;10.104;2023-09-19T03:47:17;6.78;;;2.22;;
22270;SDS011;11304;53.520;10.104;2023-09-19T03:49:44;5.65;;;2.30;;
22270;SDS011;11304;53.520;10.104;2023-09-19T03:52:10;8.65;;;2.30;;
22270;SDS011;11304;53.520;10.104;2023-09-19T03:54:36;7.47;;;2.40;;
22270;SDS011;11304;53.520;10.104;2023-09-19T03:57:02;5.82;;;1.83;;
22270;SDS011;11304;53.520;10.104;2023-09-19T03:59:29;7.30;;;2.03;;
22270;SDS011;11304;53.520;10.104;2023-09-19T04:01:55;5.30;;;2.00;;
22270;SDS011;11304;53.520;10.104;2023-09-19T04:04:23;6.78;;;1.67;;
22270;SDS011;11304;53.520;10.104;2023-09-19T04:06:50;6.63;;;2.28;;
22270;SDS011;11304;53.520;10.104;2023-09-19T04:09:16;6.53;;;1.85;;
22270;SDS011;11304;53.520;10.104;2023-09-19T04:11:42;4.78;;;1.52;;
22270;SDS011;11304;53.520;10.104;2023-09-19T04:14:07;7.53;;;2.30;;
22270;SDS011;11304;53.520;10.104;2023-09-19T04:16:33;7.85;;;1.80;;
22270;SDS011;11304;53.520;10.104;2023-09-19T04:18:59;8.82;;;1.70;;
22270;SDS011;11304;53.520;10.104;2023-09-19T04:21:25;9.13;;;2.20;;
22270;SDS011;11304;53.520;10.104;2023-09-19T04:23:51;7.18;;;1.80;;
22270;SDS011;11304;53.520;10.104;2023-09-19T04:26:17;10.55;;;2.10;;
22270;SDS011;11304;53.520;10.104;2023-09-19T04:28:43;11.57;;;2.05;;
22270;SDS011;11304;53.520;10.104;2023-09-19T04:31:09;6.10;;;1.77;;
22270;SDS011;11304;53.520;10.104;2023-09-19T04:33:36;6.75;;;1.98;;
22270;SDS011;11304;53.520;10.104;2023-09-19T04:36:02;7.57;;;2.40;;
22270;SDS011;11304;53.520;10.104;2023-09-19T04:38:30;10.52;;;2.05;;
22270;SDS011;11304;53.520;10.104;2023-09-19T04:40:59;6.45;;;1.50;;
22270;SDS011;11304;53.520;10.104;2023-09-19T04:45:51;5.85;;;1.65;;
22270;SDS011;11304;53.520;10.104;2023-09-19T04:48:20;7.40;;;2.10;;
22270;SDS011;11304;53.520;10.104;2023-09-19T04:50:49;8.13;;;1.70;;
22270;SDS011;11304;53.520;10.104;2023-09-19T04:53:14;9.00;;;2.42;;
22270;SDS011;11304;53.520;10.104;2023-09-19T04:55:40;8.05;;;1.83;;
22270;SDS011;11304;53.520;10.104;2023-09-19T04:58:06;8.77;;;1.88;;
22270;SDS011;11304;53.520;10.104;2023-09-19T05:00:31;8.50;;;2.38;;
22270;SDS011;11304;53.520;10.104;2023-09-19T05:03:00;9.02;;;2.40;;
22270;SDS011;11304;53.520;10.104;2023-09-19T05:05:26;10.40;;;2.42;;
22270;SDS011;11304;53.520;10.104;2023-09-19T05:07:52;11.23;;;2.30;;
22270;SDS011;11304;53.520;10.104;2023-09-19T05:10:20;8.38;;;2.20;;
22270;SDS011;11304;53.520;10.104;2023-09-19T05:12:46;8.77;;;1.90;;
22270;SDS011;11304;53.520;10.104;2023-09-19T05:15:13;8.48;;;1.80;;
22270;SDS011;11304;53.520;10.104;2023-09-19T05:17:47;11.15;;;1.85;;
22270;SDS011;11304;53.520;10.104;2023-09-19T05:20:15;9.13;;;2.20;;
22270;SDS011;11304;53.520;10.104;2023-09-19T05:22:49;8.25;;;2.33;;
22270;SDS011;11304;53.520;10.104;2023-09-19T05:27:56;7.93;;;2.10;;
22270;SDS011;11304;53.520;10.104;2023-09-19T05:30:22;10.10;;;2.30;;
22270;SDS011;11304;53.520;10.104;2023-09-19T05:32:49;9.02;;;2.10;;
22270;SDS011;11304;53.520;10.104;2023-09-19T05:35:14;10.88;;;2.25;;
22270;SDS011;11304;53.520;10.104;2023-09-19T05:37:40;8.55;;;2.40;;
22270;SDS011;11304;53.520;10.104;2023-09-19T05:40:06;5.88;;;1.95;;
22270;SDS011;11304;53.520;10.104;2023-09-19T05:42:37;9.02;;;2.30;;
22270;SDS011;11304;53.520;10.104;2023-09-19T05:45:04;10.63;;;2.03;;
22270;SDS011;11304;53.520;10.104;2023-09-19T05:47:31;8.05;;;2.17;;
22270;SDS011;11304;53.520;10.104;2023-09-19T05:49:57;6.93;;;2.15;;
22270;SDS011;11304;53.520;10.104;2023-09-19T05:52:24;6.78;;;2.08;;
22270;SDS011;11304;53.520;10.104;2023-09-19T05:54:50;15.30;;;2.28;;
22270;SDS011;11304;53.520;10.104;2023-09-19T05:57:16;11.38;;;1.98;;
22270;SDS011;11304;53.520;10.104;2023-09-19T05:59:41;7.13;;;2.15;;
22270;SDS011;11304;53.520;10.104;2023-09-19T06:02:08;8.73;;;2.55;;
22270;SDS011;11304;53.520;10.104;2023-09-19T06:04:34;9.10;;;2.33;;
22270;SDS011;11304;53.520;10.104;2023-09-19T06:07:00;8.80;;;1.95;;
22270;SDS011;11304;53.520;10.104;2023-09-19T06:09:29;9.10;;;2.45;;
22270;SDS011;11304;53.520;10.104;2023-09-19T06:11:57;9.43;;;2.35;;
22270;SDS011;11304;53.520;10.104;2023-09-19T06:14:23;9.15;;;2.15;;
22270;SDS011;11304;53.520;10.104;2023-09-19T06:16:49;8.85;;;2.15;;
22270;SDS011;11304;53.520;10.104;2023-09-19T06:19:15;10.38;;;2.25;;
22270;SDS011;11304;53.520;10.104;2023-09-19T06:21:41;9.13;;;2.38;;
22270;SDS011;11304;53.520;10.104;2023-09-19T06:24:07;8.30;;;2.25;;
22270;SDS011;11304;53.520;10.104;2023-09-19T06:26:33;7.80;;;2.13;;
22270;SDS011;11304;53.520;10.104;2023-09-19T06:28:58;9.88;;;2.05;;
22270;SDS011;11304;53.520;10.104;2023-09-19T06:31:25;11.05;;;2.20;;
22270;SDS011;11304;53.520;10.104;2023-09-19T06:33:51;12.75;;;2.60;;
22270;SDS011;11304;53.520;10.104;2023-09-19T06:36:17;10.05;;;2.58;;
22270;SDS011;11304;53.520;10.104;2023-09-19T06:38:44;9.60;;;2.13;;
22270;SDS011;11304;53.520;10.104;2023-09-19T06:41:10;9.23;;;2.70;;
22270;SDS011;11304;53.520;10.104;2023-09-19T06:43:36;7.40;;;2.13;;
22270;SDS011;11304;53.520;10.104;2023-09-19T06:46:02;11.10;;;2.40;;
22270;SDS011;11304;53.520;10.104;2023-09-19T06:48:29;8.98;;;2.47;;
22270;SDS011;11304;53.520;10.104;2023-09-19T06:50:55;10.25;;;3.13;;
22270;SDS011;11304;53.520;10.104;2023-09-19T06:53:23;10.90;;;2.40;;
22270;SDS011;11304;53.520;10.104;2023-09-19T06:55:50;12.55;;;2.50;;
22270;SDS011;11304;53.520;10.104;2023-09-19T06:58:16;10.82;;;2.45;;
22270;SDS011;11304;53.520;10.104;2023-09-19T07:00:42;12.75;;;2.53;;
22270;SDS011;11304;53.520;10.104;2023-09-19T07:03:08;10.38;;;2.58;;
22270;SDS011;11304;53.520;10.104;2023-09-19T07:05:36;9.15;;;2.42;;
22270;SDS011;11304;53.520;10.104;2023-09-19T07:08:04;7.05;;;2.30;;
22270;SDS011;11304;53.520;10.104;2023-09-19T07:10:35;9.27;;;2.50;;
22270;SDS011;11304;53.520;10.104;2023-09-19T07:13:02;12.90;;;3.22;;
22270;SDS011;11304;53.520;10.104;2023-09-19T07:15:31;9.63;;;2.25;;
22270;SDS011;11304;53.520;10.104;2023-09-19T07:18:03;7.65;;;2.55;;
22270;SDS011;11304;53.520;10.104;2023-09-19T07:20:31;12.55;;;2.65;;
22270;SDS011;11304;53.520;10.104;2023-09-19T07:23:00;16.33;;;2.70;;
22270;SDS011;11304;53.520;10.104;2023-09-19T07:25:29;9.38;;;2.55;;
22270;SDS011;11304;53.520;10.104;2023-09-19T07:27:56;9.98;;;2.42;;
22270;SDS011;11304;53.520;10.104;2023-09-19T07:30:24;12.50;;;3.03;;
22270;SDS011;11304;53.520;10.104;2023-09-19T07:32:51;12.90;;;3.55;;
22270;SDS011;11304;53.520;10.104;2023-09-19T07:35:17;19.38;;;3.50;;
22270;SDS011;11304;53.520;10.104;2023-09-19T07:37:45;14.77;;;2.90;;
22270;SDS011;11304;53.520;10.104;2023-09-19T07:40:17;12.55;;;2.65;;
22270;SDS011;11304;53.520;10.104;2023-09-19T07:42:44;9.77;;;2.63;;
22270;SDS011;11304;53.520;10.104;2023-09-19T07:45:12;16.33;;;3.65;;
22270;SDS011;11304;53.520;10.104;2023-09-19T07:47:45;8.32;;;3.15;;
22270;SDS011;11304;53.520;10.104;2023-09-19T07:50:16;9.73;;;3.00;;
22270;SDS011;11304;53.520;10.104;2023-09-19T07:52:46;13.68;;;3.15;;
22270;SDS011;11304;53.520;10.104;2023-09-19T07:55:13;13.23;;;2.88;;
22270;SDS011;11304;53.520;10.104;2023-09-19T07:57:44;14.55;;;3.45;;
22270;SDS011;11304;53.520;10.104;2023-09-19T08:00:10;18.00;;;3.28;;
22270;SDS011;11304;53.520;10.104;2023-09-19T08:02:37;15.32;;;2.60;;
22270;SDS011;11304;53.520;10.104;2023-09-19T08:05:03;13.98;;;3.20;;
22270;SDS011;11304;53.520;10.104;2023-09-19T08:07:35;13.82;;;2.65;;
22270;SDS011;11304;53.520;10.104;2023-09-19T08:10:02;11.68;;;2.58;;
22270;SDS011;11304;53.520;10.104;2023-09-19T08:12:29;11.60;;;2.55;;
22270;SDS011;11304;53.520;10.104;2023-09-19T08:14:55;12.88;;;2.83;;
22270;SDS011;11304;53.520;10.104;2023-09-19T08:17:21;11.43;;;2.55;;
22270;SDS011;11304;53.520;10.104;2023-09-19T08:19:48;9.43;;;2.70;;
22270;SDS011;11304;53.520;10.104;2023-09-19T08:22:17;9.52;;;2.78;;
22270;SDS011;11304;53.520;10.104;2023-09-19T08:24:44;16.38;;;3.22;;
22270;SDS011;11304;53.520;10.104;2023-09-19T08:27:11;16.48;;;3.08;;
22270;SDS011;11304;53.520;10.104;2023-09-19T08:29:37;11.63;;;2.90;;
22270;SDS011;11304;53.520;10.104;2023-09-19T08:32:03;13.98;;;3.72;;
22270;SDS011;11304;53.520;10.104;2023-09-19T08:34:29;11.00;;;2.40;;
22270;SDS011;11304;53.520;10.104;2023-09-19T08:36:58;11.57;;;3.03;;
22270;SDS011;11304;53.520;10.104;2023-09-19T08:39:24;10.73;;;2.95;;
22270;SDS011;11304;53.520;10.104;2023-09-19T08:41:59;10.95;;;2.72;;
22270;SDS011;11304;53.520;10.104;2023-09-19T08:44:26;10.18;;;2.60;;
22270;SDS011;11304;53.520;10.104;2023-09-19T08:46:59;12.82;;;3.17;;
22270;SDS011;11304;53.520;10.104;2023-09-19T08:49:41;10.80;;;2.78;;
22270;SDS011;11304;53.520;10.104;2023-09-19T08:52:41;16.33;;;3.45;;
22270;SDS011;11304;53.520;10.104;2023-09-19T08:55:07;14.10;;;2.53;;
22270;SDS011;11304;53.520;10.104;2023-09-19T08:57:38;14.40;;;3.38;;
22270;SDS011;11304;53.520;10.104;2023-09-19T09:00:06;9.50;;;2.80;;
22270;SDS011;11304;53.520;10.104;2023-09-19T09:02:37;13.25;;;2.65;;
22270;SDS011;11304;53.520;10.104;2023-09-19T09:05:10;11.93;;;2.67;;
22270;SDS011;11304;53.520;10.104;2023-09-19T09:07:40;12.88;;;3.13;;
22270;SDS011;11304;53.520;10.104;2023-09-19T09:10:06;13.13;;;3.13;;
22270;SDS011;11304;53.520;10.104;2023-09-19T09:12:33;9.52;;;2.95;;
22270;SDS011;11304;53.520;10.104;2023-09-19T09:17:28;13.27;;;2.72;;
22270;SDS011;11304;53.520;10.104;2023-09-19T09:19:55;15.00;;;3.47;;
22270;SDS011;11304;53.520;10.104;2023-09-19T09:22:21;12.60;;;3.10;;
22270;SDS011;11304;53.520;10.104;2023-09-19T09:24:55;11.70;;;2.67;;
22270;SDS011;11304;53.520;10.104;2023-09-19T09:27:28;10.02;;;2.45;;
22270;SDS011;11304;53.520;10.104;2023-09-19T09:29:54;14.70;;;3.35;;
22270;SDS011;11304;53.520;10.104;2023-09-19T09:34:50;11.95;;;2.88;;
22270;SDS011;11304;53.520;10.104;2023-09-19T09:37:18;14.85;;;2.80;;
22270;SDS011;11304;53.520;10.104;2023-09-19T09:42:28;9.73;;;2.30;;
22270;SDS011;11304;53.520;10.104;2023-09-19T09:45:13;11.55;;;2.72;;
22270;SDS011;11304;53.520;10.104;2023-09-19T09:47:48;10.75;;;2.58;;
22270;SDS011;11304;53.520;10.104;2023-09-19T09:50:30;14.05;;;2.97;;
22270;SDS011;11304;53.520;10.104;2023-09-19T09:53:24;11.02;;;2.33;;
22270;SDS011;11304;53.520;10.104;2023-09-19T09:58:37;7.60;;;2.22;;
22270;SDS011;11304;53.520;10.104;2023-09-19T10:01:20;13.40;;;2.92;;
22270;SDS011;11304;53.520;10.104;2023-09-19T10:03:52;12.05;;;2.50;;
22270;SDS011;11304;53.520;10.104;2023-09-19T10:06:23;7.30;;;2.22;;
22270;SDS011;11304;53.520;10.104;2023-09-19T10:12:18;8.93;;;2.38;;
22270;SDS011;11304;53.520;10.104;2023-09-19T10:14:30;12.20;;;2.78;;
22270;SDS011;11304;53.520;10.104;2023-09-19T10:17:00;10.57;;;2.47;;
22270;SDS011;11304;53.520;10.104;2023-09-19T10:19:36;8.73;;;2.42;;
22270;SDS011;11304;53.520;10.104;2023-09-19T10:22:11;11.23;;;2.95;;
22270;SDS011;11304;53.520;10.104;2023-09-19T10:24:41;8.68;;;1.90;;
22270;SDS011;11304;53.520;10.104;2023-09-19T10:27:09;9.65;;;1.95;;
22270;SDS011;11304;53.520;10.104;2023-09-19T10:29:36;9.38;;;2.30;;
22270;SDS011;11304;53.520;10.104;2023-09-19T10:32:05;9.23;;;2.33;;
22270;SDS011;11304;53.520;10.104;2023-09-19T10:34:34;13.77;;;2.25;;
22270;SDS011;11304;53.520;10.104;2023-09-19T10:37:01;11.02;;;2.50;;
22270;SDS011;11304;53.520;10.104;2023-09-19T10:39:31;10.80;;;3.10;;
22270;SDS011;11304;53.520;10.104;2023-09-19T10:41:58;9.77;;;2.42;;
22270;SDS011;11304;53.520;10.104;2023-09-19T10:44:31;7.30;;;2.40;;
22270;SDS011;11304;53.520;10.104;2023-09-19T10:46:58;4.57;;;1.85;;
22270;SDS011;11304;53.520;10.104;2023-09-19T10:49:24;11.07;;;2.45;;
22270;SDS011;11304;53.520;10.104;2023-09-19T10:51:55;10.75;;;2.30;;
22270;SDS011;11304;53.520;10.104;2023-09-19T10:54:26;13.70;;;2.20;;
22270;SDS011;11304;53.520;10.104;2023-09-19T10:56:59;10.65;;;2.30;;
22270;SDS011;11304;53.520;10.104;2023-09-19T10:59:25;12.32;;;2.50;;
22270;SDS011;11304;53.520;10.104;2023-09-19T11:01:59;14.45;;;2.50;;
22270;SDS011;11304;53.520;10.104;2023-09-19T11:04:40;10.30;;;2.20;;
22270;SDS011;11304;53.520;10.104;2023-09-19T11:09:43;10.57;;;2.33;;
22270;SDS011;11304;53.520;10.104;2023-09-19T11:15:01;9.60;;;2.22;;
22270;SDS011;11304;53.520;10.104;2023-09-19T11:17:34;9.20;;;2.28;;
22270;SDS011;11304;53.520;10.104;2023-09-19T11:28:27;9.13;;;2.42;;
22270;SDS011;11304;53.520;10.104;2023-09-19T11:30:55;5.28;;;2.00;;
22270;SDS011;11304;53.520;10.104;2023-09-19T11:33:32;10.80;;;1.92;;
22270;SDS011;11304;53.520;10.104;2023-09-19T11:36:05;8.50;;;2.30;;
22270;SDS011;11304;53.520;10.104;2023-09-19T11:46:29;6.47;;;2.25;;
22270;SDS011;11304;53.520;10.104;2023-09-19T11:49:04;8.10;;;2.20;;
22270;SDS011;11304;53.520;10.104;2023-09-19T11:51:39;9.93;;;2.00;;
22270;SDS011;11304;53.520;10.104;2023-09-19T11:54:10;9.15;;;2.10;;
22270;SDS011;11304;53.520;10.104;2023-09-19T11:56:50;10.90;;;2.38;;
22270;SDS011;11304;53.520;10.104;2023-09-19T12:01:51;11.38;;;2.58;;
22270;SDS011;11304;53.520;10.104;2023-09-19T12:04:37;7.63;;;2.28;;
22270;SDS011;11304;53.520;10.104;2023-09-19T12:07:08;9.50;;;2.75;;
22270;SDS011;11304;53.520;10.104;2023-09-19T12:09:44;13.38;;;3.25;;
22270;SDS011;11304;53.520;10.104;2023-09-19T12:12:25;10.88;;;2.35;;
22270;SDS011;11304;53.520;10.104;2023-09-19T12:14:55;10.82;;;2.42;;
22270;SDS011;11304;53.520;10.104;2023-09-19T12:17:36;11.48;;;3.03;;
22270;SDS011;11304;53.520;10.104;2023-09-19T12:20:04;10.35;;;2.40;;
22270;SDS011;11304;53.520;10.104;2023-09-19T12:22:40;8.65;;;2.53;;
22270;SDS011;11304;53.520;10.104;2023-09-19T12:25:09;10.10;;;2.72;;
22270;SDS011;11304;53.520;10.104;2023-09-19T12:30:12;11.07;;;2.70;;
22270;SDS011;11304;53.520;10.104;2023-09-19T12:32:44;9.50;;;2.95;;
22270;SDS011;11304;53.520;10.104;2023-09-19T12:35:11;8.13;;;2.75;;
22270;SDS011;11304;53.520;10.104;2023-09-19T12:37:56;8.43;;;2.50;;
22270;SDS011;11304;53.520;10.104;2023-09-19T12:40:22;11.77;;;2.83;;
22270;SDS011;11304;53.520;10.104;2023-09-19T12:42:52;8.77;;;2.42;;
22270;SDS011;11304;53.520;10.104;2023-09-19T12:45:23;15.23;;;2.60;;
22270;SDS011;11304;53.520;10.104;2023-09-19T12:53:34;11.32;;;2.70;;
22270;SDS011;11304;53.520;10.104;2023-09-19T12:56:05;11.35;;;3.10;;
22270;SDS011;11304;53.520;10.104;2023-09-19T12:58:33;10.02;;;2.55;;
22270;SDS011;11304;53.520;10.104;2023-09-19T13:01:00;11.57;;;3.20;;
22270;SDS011;11304;53.520;10.104;2023-09-19T13:03:30;12.23;;;2.95;;
22270;SDS011;11304;53.520;10.104;2023-09-19T13:06:01;12.25;;;2.72;;
22270;SDS011;11304;53.520;10.104;2023-09-19T13:08:32;11.82;;;2.75;;
22270;SDS011;11304;53.520;10.104;2023-09-19T13:11:06;10.38;;;2.90;;
22270;SDS011;11304;53.520;10.104;2023-09-19T13:13:39;14.70;;;2.97;;
22270;SDS011;11304;53.520;10.104;2023-09-19T13:16:07;11.13;;;2.60;;
22270;SDS011;11304;53.520;10.104;2023-09-19T13:18:53;11.25;;;2.97;;
22270;SDS011;11304;53.520;10.104;2023-09-19T13:21:28;9.65;;;2.75;;
22270;SDS011;11304;53.520;10.104;2023-09-19T13:24:20;9.27;;;2.63;;
22270;SDS011;11304;53.520;10.104;2023-09-19T13:26:55;13.15;;;2.60;;
22270;SDS011;11304;53.520;10.104;2023-09-19T13:29:21;8.48;;;2.80;;
22270;SDS011;11304;53.520;10.104;2023-09-19T13:31:47;12.90;;;2.83;;
22270;SDS011;11304;53.520;10.104;2023-09-19T13:34:20;8.30;;;2.85;;
22270;SDS011;11304;53.520;10.104;2023-09-19T13:36:46;9.57;;;2.80;;
22270;SDS011;11304;53.520;10.104;2023-09-19T13:39:17;12.10;;;2.50;;
22270;SDS011;11304;53.520;10.104;2023-09-19T13:41:49;6.43;;;2.27;;
22270;SDS011;11304;53.520;10.104;2023-09-19T13:44:15;11.88;;;2.80;;
22270;SDS011;11304;53.520;10.104;2023-09-19T13:46:42;10.27;;;2.80;;
22270;SDS011;11304;53.520;10.104;2023-09-19T13:51:36;10.63;;;2.67;;
22270;SDS011;11304;53.520;10.104;2023-09-19T13:54:02;13.32;;;2.97;;
22270;SDS011;11304;53.520;10.104;2023-09-19T13:56:28;8.50;;;2.55;;
22270;SDS011;11304;53.520;10.104;2023-09-19T13:58:55;11.50;;;2.30;;
22270;SDS011;11304;53.520;10.104;2023-09-19T14:01:20;7.97;;;2.55;;
22270;SDS011;11304;53.520;10.104;2023-09-19T14:03:46;8.93;;;2.67;;
22270;SDS011;11304;53.520;10.104;2023-09-19T14:06:15;8.27;;;2.88;;
22270;SDS011;11304;53.520;10.104;2023-09-19T14:08:41;11.15;;;2.80;;
22270;SDS011;11304;53.520;10.104;2023-09-19T14:11:07;14.73;;;3.00;;
22270;SDS011;11304;53.520;10.104;2023-09-19T14:13:34;7.45;;;2.70;;
22270;SDS011;11304;53.520;10.104;2023-09-19T14:16:03;11.43;;;3.05;;
22270;SDS011;11304;53.520;10.104;2023-09-19T14:18:30;10.40;;;2.75;;
22270;SDS011;11304;53.520;10.104;2023-09-19T14:20:56;7.55;;;2.20;;
22270;SDS011;11304;53.520;10.104;2023-09-19T14:23:22;9.70;;;2.75;;
22270;SDS011;11304;53.520;10.104;2023-09-19T14:25:51;11.90;;;2.90;;
22270;SDS011;11304;53.520;10.104;2023-09-19T14:28:18;11.88;;;3.20;;
22270;SDS011;11304;53.520;10.104;2023-09-19T14:30:44;9.82;;;2.38;;
22270;SDS011;11304;53.520;10.104;2023-09-19T14:33:11;10.13;;;2.60;;
22270;SDS011;11304;53.520;10.104;2023-09-19T14:35:37;11.40;;;2.78;;
22270;SDS011;11304;53.520;10.104;2023-09-19T14:38:03;10.25;;;2.28;;
22270;SDS011;11304;53.520;10.104;2023-09-19T14:40:29;7.32;;;2.55;;
22270;SDS011;11304;53.520;10.104;2023-09-19T14:42:56;13.05;;;2.97;;
22270;SDS011;11304;53.520;10.104;2023-09-19T14:45:21;8.15;;;2.75;;
22270;SDS011;11304;53.520;10.104;2023-09-19T14:47:48;10.95;;;2.58;;
22270;SDS011;11304;53.520;10.104;2023-09-19T14:50:17;10.25;;;3.17;;
22270;SDS011;11304;53.520;10.104;2023-09-19T14:52:43;11.93;;;2.72;;
22270;SDS011;11304;53.520;10.104;2023-09-19T14:55:09;8.30;;;2.47;;
22270;SDS011;11304;53.520;10.104;2023-09-19T14:57:39;10.30;;;2.50;;
22270;SDS011;11304;53.520;10.104;2023-09-19T15:00:06;10.38;;;2.78;;
22270;SDS011;11304;53.520;10.104;2023-09-19T15:02:36;12.45;;;3.40;;
22270;SDS011;11304;53.520;10.104;2023-09-19T15:05:04;12.48;;;3.05;;
22270;SDS011;11304;53.520;10.104;2023-09-19T15:07:31;8.70;;;2.58;;
22270;SDS011;11304;53.520;10.104;2023-09-19T15:09:57;11.90;;;2.90;;
22270;SDS011;11304;53.520;10.104;2023-09-19T15:12:23;19.33;;;3.28;;
22270;SDS011;11304;53.520;10.104;2023-09-19T15:14:49;7.53;;;2.40;;
22270;SDS011;11304;53.520;10.104;2023-09-19T15:17:15;8.90;;;2.70;;
22270;SDS011;11304;53.520;10.104;2023-09-19T15:19:41;8.00;;;2.65;;
22270;SDS011;11304;53.520;10.104;2023-09-19T15:22:06;8.13;;;2.80;;
22270;SDS011;11304;53.520;10.104;2023-09-19T15:24:32;9.35;;;2.75;;
22270;SDS011;11304;53.520;10.104;2023-09-19T15:26:58;13.75;;;2.72;;
22270;SDS011;11304;53.520;10.104;2023-09-19T15:29:23;10.02;;;2.35;;
22270;SDS011;11304;53.520;10.104;2023-09-19T15:31:49;9.45;;;2.58;;
22270;SDS011;11304;53.520;10.104;2023-09-19T15:34:15;10.82;;;2.85;;
22270;SDS011;11304;53.520;10.104;2023-09-19T15:36:41;11.32;;;3.03;;
22270;SDS011;11304;53.520;10.104;2023-09-19T15:39:07;13.30;;;3.08;;
22270;SDS011;11304;53.520;10.104;2023-09-19T15:41:38;9.32;;;2.45;;
22270;SDS011;11304;53.520;10.104;2023-09-19T15:44:16;11.25;;;3.10;;
22270;SDS011;11304;53.520;10.104;2023-09-19T15:46:44;14.68;;;3.10;;
22270;SDS011;11304;53.520;10.104;2023-09-19T15:49:10;7.10;;;2.28;;
22270;SDS011;11304;53.520;10.104;2023-09-19T15:51:36;9.40;;;2.97;;